sensor_id;sensor_type;location;lat;lon;timestamp;P1;durP1;ratioP1;P2;durP2;ratioP2
16669;SDS011;8448;52.034;5.158;2023-11-19T00:02:00;18.33;;;7.10;;
16669;SDS011;8448;52.034;5.158;2023-11-19T00:04:27;18.33;;;7.27;;
16669;SDS011;8448;52.034;5.158;2023-11-19T00:06:55;15.90;;;6.80;;
16669;SDS011;8448;52.034;5.158;2023-11-19T00:09:27;17.17;;;6.10;;
16669;SDS011;8448;52.034;5.158;2023-11-19T00:11:55;18.33;;;6.40;;
16669;SDS011;8448;52.034;5.158;2023-11-19T00:14:23;20.37;;;5.97;;
16669;SDS011;8448;52.034;5.158;2023-11-19T00:16:52;18.57;;;5.87;;
16669;SDS011;8448;52.034;5.158;2023-11-19T00:19:19;17.67;;;5.70;;
16669;SDS011;8448;52.034;5.158;2023-11-19T00:21:46;17.17;;;5.77;;
16669;SDS011;8448;52.034;5.158;2023-11-19T00:24:14;20.30;;;5.90;;
16669;SDS011;8448;52.034;5.158;2023-11-19T00:26:42;14.97;;;5.53;;
16669;SDS011;8448;52.034;5.158;2023-11-19T00:29:10;21.23;;;5.53;;
16669;SDS011;8448;52.034;5.158;2023-11-19T00:31:39;23.60;;;5.30;;
16669;SDS011;8448;52.034;5.158;2023-11-19T00:34:07;20.40;;;5.00;;
16669;SDS011;8448;52.034;5.158;2023-11-19T00:36:35;18.73;;;5.00;;
16669;SDS011;8448;52.034;5.158;2023-11-19T00:39:03;22.90;;;5.63;;
16669;SDS011;8448;52.034;5.158;2023-11-19T00:41:30;20.43;;;4.87;;
16669;SDS011;8448;52.034;5.158;2023-11-19T00:43:58;20.70;;;5.33;;
16669;SDS011;8448;52.034;5.158;2023-11-19T00:46:25;20.20;;;5.37;;
16669;SDS011;8448;52.034;5.158;2023-11-19T00:48:52;20.83;;;5.17;;
16669;SDS011;8448;52.034;5.158;2023-11-19T00:51:21;21.73;;;5.47;;
16669;SDS011;8448;52.034;5.158;2023-11-19T00:53:48;19.63;;;5.20;;
16669;SDS011;8448;52.034;5.158;2023-11-19T00:56:16;20.00;;;4.50;;
16669;SDS011;8448;52.034;5.158;2023-11-19T00:58:44;25.50;;;5.57;;
16669;SDS011;8448;52.034;5.158;2023-11-19T01:01:11;23.83;;;5.00;;
16669;SDS011;8448;52.034;5.158;2023-11-19T01:03:39;27.87;;;4.97;;
16669;SDS011;8448;52.034;5.158;2023-11-19T01:06:06;26.80;;;5.33;;
16669;SDS011;8448;52.034;5.158;2023-11-19T01:08:35;29.37;;;5.43;;
16669;SDS011;8448;52.034;5.158;2023-11-19T01:11:03;29.87;;;6.20;;
16669;SDS011;8448;52.034;5.158;2023-11-19T01:13:30;31.63;;;5.40;;
16669;SDS011;8448;52.034;5.158;2023-11-19T01:15:58;31.23;;;5.70;;
16669;SDS011;8448;52.034;5.158;2023-11-19T01:18:27;24.97;;;5.50;;
16669;SDS011;8448;52.034;5.158;2023-11-19T01:20:54;29.87;;;5.77;;
16669;SDS011;8448;52.034;5.158;2023-11-19T01:23:22;28.80;;;5.20;;
16669;SDS011;8448;52.034;5.158;2023-11-19T01:25:50;24.33;;;5.47;;
16669;SDS011;8448;52.034;5.158;2023-11-19T01:28:17;25.50;;;5.17;;
16669;SDS011;8448;52.034;5.158;2023-11-19T01:30:45;33.27;;;5.80;;
16669;SDS011;8448;52.034;5.158;2023-11-19T01:33:12;34.47;;;6.27;;
16669;SDS011;8448;52.034;5.158;2023-11-19T01:35:39;28.23;;;5.30;;
16669;SDS011;8448;52.034;5.158;2023-11-19T01:38:07;30.53;;;5.73;;
16669;SDS011;8448;52.034;5.158;2023-11-19T01:40:34;27.20;;;6.10;;
16669;SDS011;8448;52.034;5.158;2023-11-19T01:43:03;31.10;;;6.03;;
16669;SDS011;8448;52.034;5.158;2023-11-19T01:45:31;30.23;;;6.47;;
16669;SDS011;8448;52.034;5.158;2023-11-19T01:47:59;25.27;;;5.10;;
16669;SDS011;8448;52.034;5.158;2023-11-19T01:50:29;35.13;;;5.80;;
16669;SDS011;8448;52.034;5.158;2023-11-19T01:52:57;34.63;;;5.37;;
16669;SDS011;8448;52.034;5.158;2023-11-19T01:55:24;26.70;;;5.47;;
16669;SDS011;8448;52.034;5.158;2023-11-19T01:57:53;37.43;;;6.13;;
16669;SDS011;8448;52.034;5.158;2023-11-19T02:00:23;31.97;;;5.90;;
16669;SDS011;8448;52.034;5.158;2023-11-19T02:02:51;28.50;;;6.10;;
16669;SDS011;8448;52.034;5.158;2023-11-19T02:05:19;32.93;;;6.60;;
16669;SDS011;8448;52.034;5.158;2023-11-19T02:07:48;33.03;;;6.23;;
16669;SDS011;8448;52.034;5.158;2023-11-19T02:10:16;31.57;;;6.63;;
16669;SDS011;8448;52.034;5.158;2023-11-19T02:12:44;30.40;;;5.27;;
16669;SDS011;8448;52.034;5.158;2023-11-19T02:15:11;30.50;;;5.97;;
16669;SDS011;8448;52.034;5.158;2023-11-19T02:17:40;36.13;;;6.40;;
16669;SDS011;8448;52.034;5.158;2023-11-19T02:20:08;29.33;;;6.00;;
16669;SDS011;8448;52.034;5.158;2023-11-19T02:22:38;38.50;;;6.70;;
16669;SDS011;8448;52.034;5.158;2023-11-19T02:25:06;35.67;;;6.80;;
16669;SDS011;8448;52.034;5.158;2023-11-19T02:27:46;35.67;;;6.67;;
16669;SDS011;8448;52.034;5.158;2023-11-19T02:30:16;35.83;;;6.50;;
16669;SDS011;8448;52.034;5.158;2023-11-19T02:32:43;38.77;;;7.43;;
16669;SDS011;8448;52.034;5.158;2023-11-19T02:35:11;41.77;;;7.17;;
16669;SDS011;8448;52.034;5.158;2023-11-19T02:37:38;35.10;;;6.40;;
16669;SDS011;8448;52.034;5.158;2023-11-19T02:40:06;32.57;;;7.63;;
16669;SDS011;8448;52.034;5.158;2023-11-19T02:42:34;38.13;;;6.87;;
16669;SDS011;8448;52.034;5.158;2023-11-19T02:45:04;35.03;;;7.07;;
16669;SDS011;8448;52.034;5.158;2023-11-19T02:47:33;40.50;;;7.50;;
16669;SDS011;8448;52.034;5.158;2023-11-19T02:50:01;33.63;;;6.37;;
16669;SDS011;8448;52.034;5.158;2023-11-19T02:52:28;39.90;;;7.00;;
16669;SDS011;8448;52.034;5.158;2023-11-19T02:55:00;40.57;;;7.37;;
16669;SDS011;8448;52.034;5.158;2023-11-19T02:57:30;39.03;;;6.93;;
16669;SDS011;8448;52.034;5.158;2023-11-19T02:59:59;41.70;;;7.87;;
16669;SDS011;8448;52.034;5.158;2023-11-19T03:02:27;45.50;;;7.87;;
16669;SDS011;8448;52.034;5.158;2023-11-19T03:04:59;39.87;;;7.13;;
16669;SDS011;8448;52.034;5.158;2023-11-19T03:07:27;40.13;;;8.23;;
16669;SDS011;8448;52.034;5.158;2023-11-19T03:09:54;36.07;;;7.27;;
16669;SDS011;8448;52.034;5.158;2023-11-19T03:12:21;50.70;;;7.60;;
16669;SDS011;8448;52.034;5.158;2023-11-19T03:14:49;36.37;;;7.00;;
16669;SDS011;8448;52.034;5.158;2023-11-19T03:17:16;39.33;;;7.07;;
16669;SDS011;8448;52.034;5.158;2023-11-19T03:19:45;38.17;;;7.40;;
16669;SDS011;8448;52.034;5.158;2023-11-19T03:22:13;46.20;;;8.30;;
16669;SDS011;8448;52.034;5.158;2023-11-19T03:24:41;41.40;;;7.60;;
16669;SDS011;8448;52.034;5.158;2023-11-19T03:27:08;36.57;;;7.57;;
16669;SDS011;8448;52.034;5.158;2023-11-19T03:29:36;43.70;;;8.10;;
16669;SDS011;8448;52.034;5.158;2023-11-19T03:32:04;37.93;;;8.07;;
16669;SDS011;8448;52.034;5.158;2023-11-19T03:34:31;38.83;;;7.07;;
16669;SDS011;8448;52.034;5.158;2023-11-19T03:37:00;35.07;;;6.87;;
16669;SDS011;8448;52.034;5.158;2023-11-19T03:39:28;39.13;;;7.50;;
16669;SDS011;8448;52.034;5.158;2023-11-19T03:41:56;40.67;;;7.23;;
16669;SDS011;8448;52.034;5.158;2023-11-19T03:44:23;37.87;;;7.07;;
16669;SDS011;8448;52.034;5.158;2023-11-19T03:46:53;34.53;;;7.50;;
16669;SDS011;8448;52.034;5.158;2023-11-19T03:49:20;40.13;;;6.83;;
16669;SDS011;8448;52.034;5.158;2023-11-19T03:51:49;36.33;;;7.10;;
16669;SDS011;8448;52.034;5.158;2023-11-19T03:54:17;47.70;;;8.20;;
16669;SDS011;8448;52.034;5.158;2023-11-19T03:56:45;40.83;;;7.23;;
16669;SDS011;8448;52.034;5.158;2023-11-19T03:59:13;38.57;;;6.93;;
16669;SDS011;8448;52.034;5.158;2023-11-19T04:01:40;43.23;;;7.73;;
16669;SDS011;8448;52.034;5.158;2023-11-19T04:04:07;39.50;;;7.17;;
16669;SDS011;8448;52.034;5.158;2023-11-19T04:06:35;40.33;;;7.00;;
16669;SDS011;8448;52.034;5.158;2023-11-19T04:09:02;42.97;;;8.33;;
16669;SDS011;8448;52.034;5.158;2023-11-19T04:11:31;40.03;;;7.30;;
16669;SDS011;8448;52.034;5.158;2023-11-19T04:13:58;29.23;;;6.50;;
16669;SDS011;8448;52.034;5.158;2023-11-19T04:16:26;33.67;;;7.37;;
16669;SDS011;8448;52.034;5.158;2023-11-19T04:18:54;46.97;;;7.47;;
16669;SDS011;8448;52.034;5.158;2023-11-19T04:21:23;47.53;;;7.40;;
16669;SDS011;8448;52.034;5.158;2023-11-19T04:23:51;34.87;;;7.47;;
16669;SDS011;8448;52.034;5.158;2023-11-19T04:26:18;37.27;;;7.60;;
16669;SDS011;8448;52.034;5.158;2023-11-19T04:28:47;35.90;;;7.17;;
16669;SDS011;8448;52.034;5.158;2023-11-19T04:31:14;36.83;;;7.43;;
16669;SDS011;8448;52.034;5.158;2023-11-19T04:33:42;36.97;;;6.87;;
16669;SDS011;8448;52.034;5.158;2023-11-19T04:36:09;40.67;;;7.23;;
16669;SDS011;8448;52.034;5.158;2023-11-19T04:38:39;40.60;;;7.97;;
16669;SDS011;8448;52.034;5.158;2023-11-19T04:41:06;43.30;;;8.00;;
16669;SDS011;8448;52.034;5.158;2023-11-19T04:43:34;37.23;;;7.37;;
16669;SDS011;8448;52.034;5.158;2023-11-19T04:46:04;43.57;;;7.47;;
16669;SDS011;8448;52.034;5.158;2023-11-19T04:48:32;40.53;;;7.47;;
16669;SDS011;8448;52.034;5.158;2023-11-19T04:50:59;33.77;;;6.67;;
16669;SDS011;8448;52.034;5.158;2023-11-19T04:53:27;34.27;;;7.30;;
16669;SDS011;8448;52.034;5.158;2023-11-19T04:55:55;44.23;;;7.87;;
16669;SDS011;8448;52.034;5.158;2023-11-19T04:58:22;47.50;;;8.10;;
16669;SDS011;8448;52.034;5.158;2023-11-19T05:00:49;32.97;;;6.70;;
16669;SDS011;8448;52.034;5.158;2023-11-19T05:03:18;36.60;;;6.57;;
16669;SDS011;8448;52.034;5.158;2023-11-19T05:05:45;37.70;;;7.20;;
16669;SDS011;8448;52.034;5.158;2023-11-19T05:08:13;35.73;;;6.40;;
16669;SDS011;8448;52.034;5.158;2023-11-19T05:10:40;37.57;;;6.80;;
16669;SDS011;8448;52.034;5.158;2023-11-19T05:13:09;38.23;;;7.13;;
16669;SDS011;8448;52.034;5.158;2023-11-19T05:15:37;37.30;;;7.23;;
16669;SDS011;8448;52.034;5.158;2023-11-19T05:18:05;31.43;;;6.97;;
16669;SDS011;8448;52.034;5.158;2023-11-19T05:20:33;39.10;;;7.00;;
16669;SDS011;8448;52.034;5.158;2023-11-19T05:23:01;40.13;;;7.57;;
16669;SDS011;8448;52.034;5.158;2023-11-19T05:25:28;36.63;;;7.20;;
16669;SDS011;8448;52.034;5.158;2023-11-19T05:27:55;38.50;;;7.20;;
16669;SDS011;8448;52.034;5.158;2023-11-19T05:30:23;37.97;;;6.73;;
16669;SDS011;8448;52.034;5.158;2023-11-19T05:32:50;33.13;;;6.87;;
16669;SDS011;8448;52.034;5.158;2023-11-19T05:35:17;39.63;;;7.47;;
16669;SDS011;8448;52.034;5.158;2023-11-19T05:37:46;43.30;;;7.50;;
16669;SDS011;8448;52.034;5.158;2023-11-19T05:40:15;39.40;;;7.83;;
16669;SDS011;8448;52.034;5.158;2023-11-19T05:42:42;42.77;;;7.87;;
16669;SDS011;8448;52.034;5.158;2023-11-19T05:45:11;38.23;;;7.33;;
16669;SDS011;8448;52.034;5.158;2023-11-19T05:47:38;37.93;;;7.90;;
16669;SDS011;8448;52.034;5.158;2023-11-19T05:50:05;37.47;;;7.07;;
16669;SDS011;8448;52.034;5.158;2023-11-19T05:52:33;41.13;;;6.50;;
16669;SDS011;8448;52.034;5.158;2023-11-19T05:55:02;48.00;;;8.20;;
16669;SDS011;8448;52.034;5.158;2023-11-19T05:57:34;46.60;;;7.53;;
16669;SDS011;8448;52.034;5.158;2023-11-19T06:00:02;37.90;;;7.03;;
16669;SDS011;8448;52.034;5.158;2023-11-19T06:02:36;45.27;;;7.53;;
16669;SDS011;8448;52.034;5.158;2023-11-19T06:05:04;44.37;;;8.43;;
16669;SDS011;8448;52.034;5.158;2023-11-19T06:07:32;44.00;;;7.60;;
16669;SDS011;8448;52.034;5.158;2023-11-19T06:10:00;39.60;;;6.93;;
16669;SDS011;8448;52.034;5.158;2023-11-19T06:12:30;50.67;;;8.67;;
16669;SDS011;8448;52.034;5.158;2023-11-19T06:14:59;42.70;;;8.07;;
16669;SDS011;8448;52.034;5.158;2023-11-19T06:17:26;44.17;;;7.67;;
16669;SDS011;8448;52.034;5.158;2023-11-19T06:19:54;42.97;;;8.13;;
16669;SDS011;8448;52.034;5.158;2023-11-19T06:22:21;43.50;;;7.90;;
16669;SDS011;8448;52.034;5.158;2023-11-19T06:24:48;35.53;;;6.60;;
16669;SDS011;8448;52.034;5.158;2023-11-19T06:27:17;46.00;;;8.30;;
16669;SDS011;8448;52.034;5.158;2023-11-19T06:29:44;46.00;;;7.40;;
16669;SDS011;8448;52.034;5.158;2023-11-19T06:32:12;45.57;;;7.93;;
16669;SDS011;8448;52.034;5.158;2023-11-19T06:34:39;37.67;;;7.27;;
16669;SDS011;8448;52.034;5.158;2023-11-19T06:37:08;37.47;;;6.93;;
16669;SDS011;8448;52.034;5.158;2023-11-19T06:39:35;41.07;;;7.13;;
16669;SDS011;8448;52.034;5.158;2023-11-19T06:42:03;41.80;;;7.30;;
16669;SDS011;8448;52.034;5.158;2023-11-19T06:44:32;43.77;;;7.80;;
16669;SDS011;8448;52.034;5.158;2023-11-19T06:46:59;42.27;;;7.53;;
16669;SDS011;8448;52.034;5.158;2023-11-19T06:49:26;37.50;;;6.93;;
16669;SDS011;8448;52.034;5.158;2023-11-19T06:51:54;42.17;;;7.63;;
16669;SDS011;8448;52.034;5.158;2023-11-19T06:54:21;36.73;;;7.17;;
16669;SDS011;8448;52.034;5.158;2023-11-19T06:56:49;41.40;;;7.53;;
16669;SDS011;8448;52.034;5.158;2023-11-19T06:59:16;35.47;;;6.73;;
16669;SDS011;8448;52.034;5.158;2023-11-19T07:01:45;36.87;;;6.83;;
16669;SDS011;8448;52.034;5.158;2023-11-19T07:04:12;42.80;;;7.83;;
16669;SDS011;8448;52.034;5.158;2023-11-19T07:06:40;39.67;;;7.13;;
16669;SDS011;8448;52.034;5.158;2023-11-19T07:09:08;43.93;;;7.10;;
16669;SDS011;8448;52.034;5.158;2023-11-19T07:11:36;37.87;;;6.90;;
16669;SDS011;8448;52.034;5.158;2023-11-19T07:14:04;44.80;;;7.23;;
16669;SDS011;8448;52.034;5.158;2023-11-19T07:16:32;40.17;;;6.90;;
16669;SDS011;8448;52.034;5.158;2023-11-19T07:19:01;43.03;;;6.53;;
16669;SDS011;8448;52.034;5.158;2023-11-19T07:21:28;38.87;;;7.00;;
16669;SDS011;8448;52.034;5.158;2023-11-19T07:23:56;37.80;;;6.93;;
16669;SDS011;8448;52.034;5.158;2023-11-19T07:26:23;38.47;;;7.17;;
16669;SDS011;8448;52.034;5.158;2023-11-19T07:28:52;40.50;;;7.20;;
16669;SDS011;8448;52.034;5.158;2023-11-19T07:31:20;38.57;;;6.73;;
16669;SDS011;8448;52.034;5.158;2023-11-19T07:33:49;38.57;;;7.13;;
16669;SDS011;8448;52.034;5.158;2023-11-19T07:36:18;34.97;;;6.67;;
16669;SDS011;8448;52.034;5.158;2023-11-19T07:38:45;41.03;;;7.67;;
16669;SDS011;8448;52.034;5.158;2023-11-19T07:41:13;40.30;;;7.60;;
16669;SDS011;8448;52.034;5.158;2023-11-19T07:43:41;39.20;;;7.40;;
16669;SDS011;8448;52.034;5.158;2023-11-19T07:46:12;40.13;;;6.93;;
16669;SDS011;8448;52.034;5.158;2023-11-19T07:48:39;48.03;;;7.67;;
16669;SDS011;8448;52.034;5.158;2023-11-19T07:51:07;43.20;;;7.03;;
16669;SDS011;8448;52.034;5.158;2023-11-19T07:53:36;38.23;;;6.50;;
16669;SDS011;8448;52.034;5.158;2023-11-19T07:56:04;43.00;;;7.50;;
16669;SDS011;8448;52.034;5.158;2023-11-19T07:58:31;44.10;;;7.67;;
16669;SDS011;8448;52.034;5.158;2023-11-19T08:00:59;43.37;;;7.23;;
16669;SDS011;8448;52.034;5.158;2023-11-19T08:03:27;40.83;;;6.93;;
16669;SDS011;8448;52.034;5.158;2023-11-19T08:05:55;42.03;;;7.10;;
16669;SDS011;8448;52.034;5.158;2023-11-19T08:08:23;41.60;;;7.10;;
16669;SDS011;8448;52.034;5.158;2023-11-19T08:10:51;40.17;;;7.17;;
16669;SDS011;8448;52.034;5.158;2023-11-19T08:13:21;39.20;;;6.50;;
16669;SDS011;8448;52.034;5.158;2023-11-19T08:15:48;34.13;;;7.10;;
16669;SDS011;8448;52.034;5.158;2023-11-19T08:18:15;42.70;;;7.47;;
16669;SDS011;8448;52.034;5.158;2023-11-19T08:20:43;33.73;;;6.97;;
16669;SDS011;8448;52.034;5.158;2023-11-19T08:23:10;31.27;;;6.27;;
16669;SDS011;8448;52.034;5.158;2023-11-19T08:25:38;34.53;;;6.60;;
16669;SDS011;8448;52.034;5.158;2023-11-19T08:28:06;30.73;;;6.23;;
16669;SDS011;8448;52.034;5.158;2023-11-19T08:30:34;30.93;;;6.13;;
16669;SDS011;8448;52.034;5.158;2023-11-19T08:33:01;33.13;;;6.23;;
16669;SDS011;8448;52.034;5.158;2023-11-19T08:35:28;35.53;;;7.40;;
16669;SDS011;8448;52.034;5.158;2023-11-19T08:37:56;33.50;;;5.83;;
16669;SDS011;8448;52.034;5.158;2023-11-19T08:40:24;32.67;;;6.63;;
16669;SDS011;8448;52.034;5.158;2023-11-19T08:42:52;30.77;;;6.53;;
16669;SDS011;8448;52.034;5.158;2023-11-19T08:45:20;34.10;;;6.10;;
16669;SDS011;8448;52.034;5.158;2023-11-19T08:47:48;37.77;;;7.23;;
16669;SDS011;8448;52.034;5.158;2023-11-19T08:50:15;33.13;;;6.43;;
16669;SDS011;8448;52.034;5.158;2023-11-19T08:52:42;37.63;;;6.50;;
16669;SDS011;8448;52.034;5.158;2023-11-19T08:55:10;34.13;;;5.97;;
16669;SDS011;8448;52.034;5.158;2023-11-19T08:57:38;34.00;;;6.43;;
16669;SDS011;8448;52.034;5.158;2023-11-19T09:00:06;39.07;;;6.60;;
16669;SDS011;8448;52.034;5.158;2023-11-19T09:02:35;32.87;;;5.73;;
16669;SDS011;8448;52.034;5.158;2023-11-19T09:05:03;32.10;;;5.97;;
16669;SDS011;8448;52.034;5.158;2023-11-19T09:07:32;28.50;;;5.70;;
16669;SDS011;8448;52.034;5.158;2023-11-19T09:09:59;29.73;;;6.00;;
16669;SDS011;8448;52.034;5.158;2023-11-19T09:12:27;29.90;;;5.83;;
16669;SDS011;8448;52.034;5.158;2023-11-19T09:14:54;32.30;;;5.83;;
16669;SDS011;8448;52.034;5.158;2023-11-19T09:17:22;25.13;;;5.10;;
16669;SDS011;8448;52.034;5.158;2023-11-19T09:19:50;28.53;;;6.00;;
16669;SDS011;8448;52.034;5.158;2023-11-19T09:22:18;33.43;;;6.27;;
16669;SDS011;8448;52.034;5.158;2023-11-19T09:24:45;34.93;;;6.13;;
16669;SDS011;8448;52.034;5.158;2023-11-19T09:27:13;31.97;;;6.00;;
16669;SDS011;8448;52.034;5.158;2023-11-19T09:29:40;33.00;;;6.50;;
16669;SDS011;8448;52.034;5.158;2023-11-19T09:32:08;29.77;;;6.27;;
16669;SDS011;8448;52.034;5.158;2023-11-19T09:34:36;30.70;;;6.53;;
16669;SDS011;8448;52.034;5.158;2023-11-19T09:37:04;35.47;;;6.67;;
16669;SDS011;8448;52.034;5.158;2023-11-19T09:39:33;31.43;;;6.27;;
16669;SDS011;8448;52.034;5.158;2023-11-19T09:42:00;27.67;;;5.83;;
16669;SDS011;8448;52.034;5.158;2023-11-19T09:44:27;29.33;;;6.40;;
16669;SDS011;8448;52.034;5.158;2023-11-19T09:46:55;29.00;;;6.60;;
16669;SDS011;8448;52.034;5.158;2023-11-19T09:49:23;30.27;;;6.23;;
16669;SDS011;8448;52.034;5.158;2023-11-19T09:51:52;30.63;;;5.63;;
16669;SDS011;8448;52.034;5.158;2023-11-19T09:54:21;33.43;;;6.63;;
16669;SDS011;8448;52.034;5.158;2023-11-19T09:56:48;35.40;;;6.60;;
16669;SDS011;8448;52.034;5.158;2023-11-19T09:59:16;27.80;;;6.43;;
16669;SDS011;8448;52.034;5.158;2023-11-19T10:01:43;41.00;;;6.63;;
16669;SDS011;8448;52.034;5.158;2023-11-19T10:04:12;34.47;;;6.03;;
16669;SDS011;8448;52.034;5.158;2023-11-19T10:06:42;28.87;;;6.00;;
16669;SDS011;8448;52.034;5.158;2023-11-19T10:09:11;35.33;;;6.50;;
16669;SDS011;8448;52.034;5.158;2023-11-19T10:11:41;24.27;;;5.27;;
16669;SDS011;8448;52.034;5.158;2023-11-19T10:14:09;27.97;;;5.80;;
16669;SDS011;8448;52.034;5.158;2023-11-19T10:16:36;33.50;;;5.23;;
16669;SDS011;8448;52.034;5.158;2023-11-19T10:19:05;32.53;;;6.27;;
16669;SDS011;8448;52.034;5.158;2023-11-19T10:21:32;28.73;;;6.17;;
16669;SDS011;8448;52.034;5.158;2023-11-19T10:24:00;28.27;;;6.17;;
16669;SDS011;8448;52.034;5.158;2023-11-19T10:26:27;29.03;;;6.30;;
16669;SDS011;8448;52.034;5.158;2023-11-19T10:28:56;31.23;;;6.05;;
16669;SDS011;8448;52.034;5.158;2023-11-19T10:31:23;26.17;;;6.05;;
16669;SDS011;8448;52.034;5.158;2023-11-19T10:33:51;28.20;;;6.50;;
16669;SDS011;8448;52.034;5.158;2023-11-19T10:36:19;22.00;;;5.35;;
16669;SDS011;8448;52.034;5.158;2023-11-19T10:38:52;28.52;;;6.40;;
16669;SDS011;8448;52.034;5.158;2023-11-19T10:41:27;28.70;;;6.30;;
16669;SDS011;8448;52.034;5.158;2023-11-19T10:43:57;29.60;;;5.82;;
16669;SDS011;8448;52.034;5.158;2023-11-19T10:46:35;28.27;;;5.38;;
16669;SDS011;8448;52.034;5.158;2023-11-19T10:49:04;27.77;;;5.97;;
16669;SDS011;8448;52.034;5.158;2023-11-19T10:51:32;31.13;;;6.03;;
16669;SDS011;8448;52.034;5.158;2023-11-19T10:54:02;27.27;;;6.20;;
16669;SDS011;8448;52.034;5.158;2023-11-19T10:56:31;26.35;;;5.68;;
16669;SDS011;8448;52.034;5.158;2023-11-19T10:59:00;21.23;;;4.88;;
16669;SDS011;8448;52.034;5.158;2023-11-19T11:01:43;29.42;;;6.10;;
16669;SDS011;8448;52.034;5.158;2023-11-19T11:04:12;29.85;;;6.07;;
16669;SDS011;8448;52.034;5.158;2023-11-19T11:06:42;25.10;;;5.40;;
16669;SDS011;8448;52.034;5.158;2023-11-19T11:09:09;29.25;;;5.85;;
16669;SDS011;8448;52.034;5.158;2023-11-19T11:11:38;25.30;;;6.32;;
16669;SDS011;8448;52.034;5.158;2023-11-19T11:14:10;29.23;;;5.70;;
16669;SDS011;8448;52.034;5.158;2023-11-19T11:16:40;25.33;;;5.78;;
16669;SDS011;8448;52.034;5.158;2023-11-19T11:19:09;33.78;;;6.45;;
16669;SDS011;8448;52.034;5.158;2023-11-19T11:21:37;29.90;;;5.97;;
16669;SDS011;8448;52.034;5.158;2023-11-19T11:24:10;26.77;;;5.30;;
16669;SDS011;8448;52.034;5.158;2023-11-19T11:26:58;30.83;;;6.33;;
16669;SDS011;8448;52.034;5.158;2023-11-19T11:29:37;27.85;;;5.78;;
16669;SDS011;8448;52.034;5.158;2023-11-19T11:32:08;28.52;;;6.00;;
16669;SDS011;8448;52.034;5.158;2023-11-19T11:34:49;23.63;;;6.00;;
16669;SDS011;8448;52.034;5.158;2023-11-19T11:37:29;26.52;;;5.68;;
16669;SDS011;8448;52.034;5.158;2023-11-19T11:39:58;24.80;;;5.47;;
16669;SDS011;8448;52.034;5.158;2023-11-19T11:42:31;29.67;;;6.10;;
16669;SDS011;8448;52.034;5.158;2023-11-19T11:45:03;22.98;;;6.05;;
16669;SDS011;8448;52.034;5.158;2023-11-19T11:50:33;26.37;;;5.27;;
16669;SDS011;8448;52.034;5.158;2023-11-19T11:53:18;22.00;;;5.40;;
16669;SDS011;8448;52.034;5.158;2023-11-19T11:55:57;24.77;;;4.90;;
16669;SDS011;8448;52.034;5.158;2023-11-19T11:58:26;23.60;;;5.17;;
16669;SDS011;8448;52.034;5.158;2023-11-19T12:01:03;17.90;;;4.90;;
16669;SDS011;8448;52.034;5.158;2023-11-19T12:03:32;22.93;;;4.80;;
16669;SDS011;8448;52.034;5.158;2023-11-19T12:05:59;18.25;;;4.20;;
16669;SDS011;8448;52.034;5.158;2023-11-19T12:08:28;21.00;;;4.53;;
16669;SDS011;8448;52.034;5.158;2023-11-19T12:10:57;17.40;;;4.88;;
16669;SDS011;8448;52.034;5.158;2023-11-19T12:13:29;15.35;;;4.15;;
16669;SDS011;8448;52.034;5.158;2023-11-19T12:16:13;20.33;;;4.57;;
16669;SDS011;8448;52.034;5.158;2023-11-19T12:18:41;18.50;;;3.95;;
16669;SDS011;8448;52.034;5.158;2023-11-19T12:21:08;22.75;;;4.80;;
16669;SDS011;8448;52.034;5.158;2023-11-19T12:23:43;20.73;;;4.55;;
16669;SDS011;8448;52.034;5.158;2023-11-19T12:26:32;20.40;;;5.25;;
16669;SDS011;8448;52.034;5.158;2023-11-19T12:29:00;21.80;;;5.40;;
16669;SDS011;8448;52.034;5.158;2023-11-19T12:31:32;19.50;;;4.45;;
16669;SDS011;8448;52.034;5.158;2023-11-19T12:34:08;21.83;;;5.13;;
16669;SDS011;8448;52.034;5.158;2023-11-19T12:36:37;21.80;;;5.20;;
16669;SDS011;8448;52.034;5.158;2023-11-19T12:39:06;23.15;;;5.28;;
16669;SDS011;8448;52.034;5.158;2023-11-19T12:41:48;26.40;;;5.43;;
16669;SDS011;8448;52.034;5.158;2023-11-19T12:44:17;22.52;;;5.70;;
16669;SDS011;8448;52.034;5.158;2023-11-19T12:46:47;23.17;;;5.35;;
16669;SDS011;8448;52.034;5.158;2023-11-19T12:49:26;25.45;;;5.60;;
16669;SDS011;8448;52.034;5.158;2023-11-19T12:51:54;25.25;;;5.03;;
16669;SDS011;8448;52.034;5.158;2023-11-19T12:54:31;23.77;;;5.75;;
16669;SDS011;8448;52.034;5.158;2023-11-19T12:56:59;26.23;;;5.57;;
16669;SDS011;8448;52.034;5.158;2023-11-19T12:59:27;23.33;;;5.18;;
16669;SDS011;8448;52.034;5.158;2023-11-19T13:01:56;25.50;;;5.35;;
16669;SDS011;8448;52.034;5.158;2023-11-19T13:04:27;27.98;;;5.72;;
16669;SDS011;8448;52.034;5.158;2023-11-19T13:06:56;26.42;;;5.35;;
16669;SDS011;8448;52.034;5.158;2023-11-19T13:09:24;26.23;;;5.30;;
16669;SDS011;8448;52.034;5.158;2023-11-19T13:11:52;25.73;;;5.50;;
16669;SDS011;8448;52.034;5.158;2023-11-19T13:14:21;26.52;;;5.35;;
16669;SDS011;8448;52.034;5.158;2023-11-19T13:16:49;29.77;;;5.33;;
16669;SDS011;8448;52.034;5.158;2023-11-19T13:19:20;27.03;;;5.80;;
16669;SDS011;8448;52.034;5.158;2023-11-19T13:21:49;27.63;;;5.63;;
16669;SDS011;8448;52.034;5.158;2023-11-19T13:24:16;32.90;;;6.80;;
16669;SDS011;8448;52.034;5.158;2023-11-19T13:26:43;21.87;;;4.80;;
16669;SDS011;8448;52.034;5.158;2023-11-19T13:29:11;32.70;;;6.20;;
16669;SDS011;8448;52.034;5.158;2023-11-19T13:31:38;26.27;;;5.60;;
16669;SDS011;8448;52.034;5.158;2023-11-19T13:34:06;28.23;;;5.80;;
16669;SDS011;8448;52.034;5.158;2023-11-19T13:36:34;32.10;;;7.10;;
16669;SDS011;8448;52.034;5.158;2023-11-19T13:39:02;29.27;;;4.87;;
16669;SDS011;8448;52.034;5.158;2023-11-19T13:41:29;32.63;;;5.20;;
16669;SDS011;8448;52.034;5.158;2023-11-19T13:43:56;24.87;;;5.83;;
16669;SDS011;8448;52.034;5.158;2023-11-19T13:46:24;26.73;;;5.37;;
16669;SDS011;8448;52.034;5.158;2023-11-19T13:48:51;24.80;;;4.40;;
16669;SDS011;8448;52.034;5.158;2023-11-19T13:51:18;26.53;;;4.80;;
16669;SDS011;8448;52.034;5.158;2023-11-19T13:53:47;26.37;;;5.03;;
16669;SDS011;8448;52.034;5.158;2023-11-19T13:56:15;33.27;;;6.03;;
16669;SDS011;8448;52.034;5.158;2023-11-19T13:58:43;26.00;;;5.13;;
16669;SDS011;8448;52.034;5.158;2023-11-19T14:01:10;31.17;;;5.17;;
16669;SDS011;8448;52.034;5.158;2023-11-19T14:03:38;22.13;;;4.47;;
16669;SDS011;8448;52.034;5.158;2023-11-19T14:06:06;19.23;;;4.20;;
16669;SDS011;8448;52.034;5.158;2023-11-19T14:08:34;20.50;;;4.73;;
16669;SDS011;8448;52.034;5.158;2023-11-19T14:11:03;23.70;;;5.20;;
16669;SDS011;8448;52.034;5.158;2023-11-19T14:13:31;22.80;;;4.33;;
16669;SDS011;8448;52.034;5.158;2023-11-19T14:15:59;21.43;;;4.40;;
16669;SDS011;8448;52.034;5.158;2023-11-19T14:18:27;26.43;;;4.90;;
16669;SDS011;8448;52.034;5.158;2023-11-19T14:20:54;27.80;;;4.77;;
16669;SDS011;8448;52.034;5.158;2023-11-19T14:23:23;29.63;;;5.27;;
16669;SDS011;8448;52.034;5.158;2023-11-19T14:25:52;25.50;;;5.10;;
16669;SDS011;8448;52.034;5.158;2023-11-19T14:28:21;24.43;;;4.90;;
16669;SDS011;8448;52.034;5.158;2023-11-19T14:30:50;23.27;;;5.53;;
16669;SDS011;8448;52.034;5.158;2023-11-19T14:33:22;26.80;;;5.43;;
16669;SDS011;8448;52.034;5.158;2023-11-19T14:35:49;25.47;;;5.70;;
16669;SDS011;8448;52.034;5.158;2023-11-19T14:38:17;24.30;;;5.37;;
16669;SDS011;8448;52.034;5.158;2023-11-19T14:40:44;27.23;;;5.10;;
16669;SDS011;8448;52.034;5.158;2023-11-19T14:43:11;32.27;;;5.77;;
16669;SDS011;8448;52.034;5.158;2023-11-19T14:45:42;30.37;;;6.47;;
16669;SDS011;8448;52.034;5.158;2023-11-19T14:48:09;31.13;;;5.87;;
16669;SDS011;8448;52.034;5.158;2023-11-19T14:50:36;31.30;;;5.60;;
16669;SDS011;8448;52.034;5.158;2023-11-19T14:53:03;32.33;;;5.80;;
16669;SDS011;8448;52.034;5.158;2023-11-19T14:55:31;26.40;;;5.83;;
16669;SDS011;8448;52.034;5.158;2023-11-19T14:57:59;28.80;;;5.27;;
16669;SDS011;8448;52.034;5.158;2023-11-19T15:00:26;21.10;;;4.73;;